createdAt,value
2022-11-29T00:03:38.270Z,97521.00
2022-11-29T00:07:39.418Z,97529.00
2022-11-29T00:12:00.488Z,97524.00
2022-11-29T00:16:06.651Z,97525.00
2022-11-29T00:20:11.524Z,97525.00
2022-11-29T00:24:12.995Z,97532.00
2022-11-29T00:28:14.352Z,97525.00
2022-11-29T00:32:15.546Z,97532.00
2022-11-29T00:36:17.414Z,97531.00
2022-11-29T00:40:18.776Z,97531.00
2022-11-29T00:44:20.644Z,97530.00
2022-11-29T00:48:22.979Z,97536.00
2022-11-29T00:52:24.243Z,97533.00
2022-11-29T00:56:25.333Z,97537.00
2022-11-29T01:00:26.571Z,97538.00
2022-11-29T01:04:27.689Z,97533.00
2022-11-29T01:08:28.821Z,97540.00
2022-11-29T01:12:29.778Z,97540.00
2022-11-29T01:16:32.065Z,97551.00
2022-11-29T01:20:33.324Z,97550.00
2022-11-29T01:24:34.352Z,97546.00
2022-11-29T01:28:37.391Z,97528.00
2022-11-29T01:32:38.797Z,97546.00
2022-11-29T01:36:39.957Z,97550.00
2022-11-29T01:40:41.156Z,97553.00
2022-11-29T01:44:46.394Z,97558.00
2022-11-29T01:48:48.750Z,97564.00
2022-11-29T01:52:50.272Z,97558.00
2022-11-29T01:56:52.668Z,97558.00
2022-11-29T02:00:53.834Z,97560.00
2022-11-29T02:04:57.358Z,97560.00
2022-11-29T02:08:58.980Z,97565.00
2022-11-29T02:13:21.767Z,97564.00
2022-11-29T02:17:38.001Z,97557.00
2022-11-29T02:21:45.932Z,97552.00
2022-11-29T02:25:53.998Z,97559.00
2022-11-29T02:30:04.759Z,97559.00
2022-11-29T02:34:12.403Z,97559.00
2022-11-29T02:38:31.933Z,97553.00
2022-11-29T02:42:57.610Z,97555.00
2022-11-29T02:47:34.574Z,97569.00
2022-11-29T02:51:51.478Z,97558.00
2022-11-29T02:56:08.590Z,97559.00
2022-11-29T03:00:13.671Z,97563.00
2022-11-29T03:04:33.799Z,97563.00
2022-11-29T03:08:44.750Z,97567.00
2022-11-29T03:12:49.015Z,97568.00
2022-11-29T03:17:27.625Z,97581.00
2022-11-29T03:21:35.356Z,97580.00
2022-11-29T03:25:39.857Z,97570.00
2022-11-29T03:29:44.886Z,97561.00
2022-11-29T03:33:56.136Z,97577.00
2022-11-29T03:38:12.667Z,97578.00
2022-11-29T03:42:17.516Z,97585.00
2022-11-29T03:46:25.259Z,97587.00
2022-11-29T03:50:30.300Z,97599.00
2022-11-29T03:54:44.774Z,97597.00
2022-11-29T03:59:12.924Z,97602.00
2022-11-29T04:03:32.757Z,97602.00
2022-11-29T04:07:43.738Z,97595.00
2022-11-29T04:12:05.308Z,97594.00
2022-11-29T04:16:26.764Z,97597.00
2022-11-29T04:20:49.942Z,97598.00
2022-11-29T04:25:06.388Z,97604.00
2022-11-29T04:29:23.646Z,97599.00
2022-11-29T04:33:37.767Z,97607.00
2022-11-29T04:38:05.573Z,97611.00
2022-11-29T04:42:24.956Z,97615.00
2022-11-29T04:46:50.758Z,97618.00
2022-11-29T04:50:55.690Z,97623.00
2022-11-29T04:55:00.669Z,97623.00
2022-11-29T04:59:05.552Z,97628.00
2022-11-29T05:03:16.918Z,97627.00
2022-11-29T05:07:30.694Z,97636.00
2022-11-29T05:11:38.281Z,97640.00
2022-11-29T05:15:59.783Z,97645.00
2022-11-29T05:20:13.778Z,97647.00
2022-11-29T05:24:31.044Z,97657.00
2022-11-29T05:28:51.862Z,97653.00
2022-11-29T05:32:59.748Z,97651.00
2022-11-29T05:37:16.951Z,97661.00
2022-11-29T05:41:41.661Z,97662.00
2022-11-29T05:46:09.289Z,97677.00
2022-11-29T05:50:23.401Z,97656.00
2022-11-29T05:54:43.647Z,97674.00
2022-11-29T05:58:51.637Z,97678.00
2022-11-29T06:02:59.663Z,97675.00
2022-11-29T06:07:13.593Z,97678.00
2022-11-29T06:11:21.270Z,97681.00
2022-11-29T06:15:32.362Z,97696.00
2022-11-29T06:20:06.700Z,97690.00
2022-11-29T06:24:33.607Z,97691.00
2022-11-29T06:28:44.420Z,97696.00
2022-11-29T06:33:00.182Z,97705.00
2022-11-29T06:37:23.342Z,97698.00
2022-11-29T06:41:24.989Z,97698.00
2022-11-29T06:45:27.157Z,97698.00
2022-11-29T06:49:40.825Z,97698.00
2022-11-29T06:54:04.070Z,97699.00
2022-11-29T06:58:18.077Z,97707.00
2022-11-29T07:02:47.635Z,97714.00
2022-11-29T07:06:49.141Z,97720.00
2022-11-29T07:10:54.510Z,97717.00
2022-11-29T07:14:56.020Z,97718.00
2022-11-29T07:19:01.002Z,97723.00
2022-11-29T07:23:21.275Z,97732.00
2022-11-29T07:27:26.131Z,97732.00
2022-11-29T07:31:46.459Z,97737.00
2022-11-29T07:36:09.669Z,97738.00
2022-11-29T07:40:17.628Z,97742.00
2022-11-29T07:44:31.148Z,97740.00
2022-11-29T07:48:32.202Z,97750.00
2022-11-29T07:52:33.655Z,97738.00
2022-11-29T07:56:34.834Z,97751.00
2022-11-29T08:00:36.303Z,97752.00
2022-11-29T08:04:44.589Z,97762.00
2022-11-29T08:08:45.931Z,97760.00
2022-11-29T08:12:49.961Z,97766.00
2022-11-29T08:16:51.133Z,97777.00
2022-11-29T08:20:52.251Z,97773.00
2022-11-29T08:24:53.606Z,97778.00
2022-11-29T08:28:55.377Z,97786.00
2022-11-29T08:32:56.571Z,97788.00
2022-11-29T08:36:57.678Z,97796.00
2022-11-29T08:41:03.127Z,97801.00
2022-11-29T08:45:05.848Z,97801.00
2022-11-29T08:49:06.901Z,97805.00
2022-11-29T08:53:26.505Z,97810.00
2022-11-29T08:57:43.166Z,97821.00
2022-11-29T09:01:31.179Z,97814.00
2022-11-29T09:05:32.372Z,97822.00
2022-11-29T09:09:33.472Z,97814.00
2022-11-29T09:13:34.626Z,97829.00
2022-11-29T09:17:35.876Z,97819.00
2022-11-29T09:21:37.189Z,97844.00
2022-11-29T09:25:38.648Z,97844.00
2022-11-29T09:29:39.726Z,97848.00
2022-11-29T09:33:41.483Z,97852.00
2022-11-29T09:37:43.358Z,97849.00
2022-11-29T09:42:05.362Z,97856.00
2022-11-29T09:46:26.839Z,97856.00
2022-11-29T09:50:32.719Z,97856.00
2022-11-29T09:54:37.769Z,97854.00
2022-11-29T09:58:54.892Z,97854.00
2022-11-29T10:03:05.879Z,97869.00
2022-11-29T10:07:20.933Z,97871.00
2022-11-29T10:11:46.075Z,97871.00
2022-11-29T10:15:51.124Z,97875.00
2022-11-29T10:19:58.647Z,97869.00
2022-11-29T10:24:03.738Z,97877.00
2022-11-29T10:28:08.659Z,97868.00
2022-11-29T10:32:13.276Z,97866.00
2022-11-29T10:36:33.661Z,97870.00
2022-11-29T10:40:37.751Z,97863.00
2022-11-29T10:44:38.962Z,97864.00
2022-11-29T10:48:40.444Z,97865.00
2022-11-29T10:52:41.895Z,97876.00
2022-11-29T10:56:45.294Z,97872.00
2022-11-29T11:01:06.230Z,97877.00
2022-11-29T11:05:16.526Z,97870.00
2022-11-29T11:09:24.014Z,97864.00
2022-11-29T11:13:27.442Z,97873.00
2022-11-29T11:17:35.586Z,97866.00
2022-11-29T11:21:38.273Z,97874.00
2022-11-29T11:25:40.079Z,97873.00
2022-11-29T11:29:43.990Z,97880.00
2022-11-29T11:33:46.059Z,97878.00
2022-11-29T11:37:51.043Z,97885.00
2022-11-29T11:42:12.045Z,97878.00
2022-11-29T11:46:17.870Z,97887.00
2022-11-29T11:50:32.123Z,97885.00
2022-11-29T11:54:33.606Z,97891.00
2022-11-29T11:58:50.500Z,97893.00
2022-11-29T12:02:52.111Z,97896.00
2022-11-29T12:07:00.116Z,97899.00
2022-11-29T12:11:07.797Z,97903.00
2022-11-29T12:15:18.827Z,97907.00
2022-11-29T12:19:23.752Z,97906.00
2022-11-29T12:23:28.706Z,97911.00
2022-11-29T12:27:30.999Z,97907.00
2022-11-29T12:31:48.186Z,97908.00
2022-11-29T12:36:09.731Z,97915.00
2022-11-29T12:40:29.787Z,97917.00
2022-11-29T12:45:08.297Z,97922.00
2022-11-29T12:49:25.209Z,97925.00
2022-11-29T12:53:30.425Z,97922.00
2022-11-29T12:57:38.067Z,97918.00
2022-11-29T13:02:16.534Z,97919.00
2022-11-29T13:06:41.010Z,97902.00
2022-11-29T13:11:05.518Z,97918.00
2022-11-29T13:15:13.424Z,97927.00
2022-11-29T13:19:20.801Z,97933.00
2022-11-29T13:24:07.466Z,97922.00
2022-11-29T13:27:44.560Z,97920.00
2022-11-29T13:31:46.702Z,97931.00
2022-11-29T13:35:54.517Z,97923.00
2022-11-29T13:39:59.952Z,97927.00
2022-11-29T13:44:07.985Z,97923.00
2022-11-29T13:48:34.400Z,97919.00
2022-11-29T13:52:46.351Z,97929.00
2022-11-29T13:56:47.871Z,97937.00
2022-11-29T14:00:51.200Z,97935.00
2022-11-29T14:04:52.650Z,97948.00
2022-11-29T14:09:19.816Z,97950.00
2022-11-29T14:13:22.603Z,97946.00
2022-11-29T14:17:52.408Z,97958.00
2022-11-29T14:22:06.324Z,97957.00
2022-11-29T14:26:11.309Z,97956.00
2022-11-29T14:30:34.645Z,97957.00
2022-11-29T14:34:39.661Z,97959.00
2022-11-29T14:38:59.437Z,97961.00
2022-11-29T14:43:03.214Z,97961.00
2022-11-29T14:47:23.541Z,97960.00
2022-11-29T14:51:27.661Z,97974.00
2022-11-29T14:55:32.527Z,97972.00
2022-11-29T14:59:43.578Z,97977.00
2022-11-29T15:03:48.713Z,97977.00
2022-11-29T15:07:56.468Z,97976.00
2022-11-29T15:12:01.049Z,97980.00
2022-11-29T15:16:24.668Z,97986.00
2022-11-29T15:20:55.346Z,97981.00
2022-11-29T15:25:03.487Z,97985.00
2022-11-29T15:29:17.561Z,97990.00
2022-11-29T15:33:24.332Z,97998.00
2022-11-29T15:37:36.725Z,97993.00
2022-11-29T15:41:38.292Z,97996.00
2022-11-29T15:45:40.060Z,98008.00
2022-11-29T15:49:41.710Z,98004.00
2022-11-29T15:54:12.386Z,98023.00
2022-11-29T15:58:08.688Z,98024.00
2022-11-29T16:02:17.911Z,98015.00
2022-11-29T16:06:34.783Z,98023.00
2022-11-29T16:10:43.265Z,98024.00
2022-11-29T16:14:55.462Z,98023.00
2022-11-29T16:19:00.436Z,98031.00
2022-11-29T16:23:04.039Z,98024.00
2022-11-29T16:27:07.254Z,98030.00
2022-11-29T16:31:11.345Z,98031.00
2022-11-29T16:35:27.421Z,98029.00
2022-11-29T16:39:29.214Z,98036.00
2022-11-29T16:43:54.558Z,98028.00
2022-11-29T16:47:58.008Z,98039.00
2022-11-29T16:51:59.730Z,98033.00
2022-11-29T16:56:01.186Z,98032.00
2022-11-29T17:00:15.126Z,98040.00
2022-11-29T17:04:23.525Z,98041.00
2022-11-29T17:08:20.505Z,98041.00
2022-11-29T17:12:21.773Z,98049.00
2022-11-29T17:16:24.173Z,98047.00
2022-11-29T17:20:25.619Z,98045.00
2022-11-29T17:24:26.855Z,98051.00
2022-11-29T17:28:28.223Z,98052.00
2022-11-29T17:32:29.500Z,98061.00
2022-11-29T17:36:31.445Z,98061.00
2022-11-29T17:40:32.795Z,98063.00
2022-11-29T17:44:33.911Z,98062.00
2022-11-29T17:48:35.657Z,98080.00
2022-11-29T17:52:38.873Z,98071.00
2022-11-29T17:56:40.179Z,98071.00
2022-11-29T18:00:41.484Z,98080.00
2022-11-29T18:04:43.859Z,98069.00
2022-11-29T18:08:47.586Z,98086.00
2022-11-29T18:12:49.004Z,98090.00
2022-11-29T18:16:51.070Z,98094.00
2022-11-29T18:20:56.305Z,98096.00
2022-11-29T18:25:15.863Z,98090.00
2022-11-29T18:29:00.877Z,98093.00
2022-11-29T18:33:02.026Z,98097.00
2022-11-29T18:37:03.553Z,98097.00
2022-11-29T18:41:15.016Z,98107.00
2022-11-29T18:45:16.412Z,98110.00
2022-11-29T18:49:19.077Z,98108.00
2022-11-29T18:53:20.308Z,98111.00
2022-11-29T18:57:21.621Z,98115.00
2022-11-29T19:01:24.380Z,98117.00
2022-11-29T19:05:25.556Z,98124.00
2022-11-29T19:09:26.836Z,98118.00
2022-11-29T19:13:28.016Z,98113.00
2022-11-29T19:17:29.572Z,98115.00
2022-11-29T19:21:33.874Z,98123.00
2022-11-29T19:25:35.304Z,98120.00
2022-11-29T19:29:39.605Z,98119.00
2022-11-29T19:33:41.131Z,98123.00
2022-11-29T19:37:42.538Z,98127.00
2022-11-29T19:41:46.581Z,98132.00
2022-11-29T19:45:47.859Z,98137.00
2022-11-29T19:49:49.194Z,98134.00
2022-11-29T19:53:56.261Z,98137.00
2022-11-29T19:57:57.578Z,98137.00
2022-11-29T20:01:59.327Z,98143.00
2022-11-29T20:06:01.190Z,98138.00
2022-11-29T20:10:02.768Z,98142.00
2022-11-29T20:14:05.978Z,98146.00
2022-11-29T20:18:07.192Z,98148.00
2022-11-29T20:22:08.335Z,98149.00
2022-11-29T20:26:20.170Z,98148.00
2022-11-29T20:30:21.515Z,98143.00
2022-11-29T20:34:22.871Z,98149.00
2022-11-29T20:38:39.972Z,98152.00
2022-11-29T20:43:05.036Z,98153.00
2022-11-29T20:47:17.935Z,98152.00
2022-11-29T20:51:22.902Z,98149.00
2022-11-29T20:55:24.569Z,98148.00
2022-11-29T20:59:25.639Z,98153.00
2022-11-29T21:03:27.867Z,98160.00
2022-11-29T21:07:29.141Z,98167.00
2022-11-29T21:11:30.901Z,98161.00
2022-11-29T21:15:32.593Z,98156.00
2022-11-29T21:19:34.196Z,98158.00
2022-11-29T21:23:57.209Z,98169.00
2022-11-29T21:27:59.924Z,98163.00
2022-11-29T21:32:02.237Z,98168.00
2022-11-29T21:36:05.514Z,98165.00
2022-11-29T21:40:08.869Z,98174.00
2022-11-29T21:44:10.011Z,98171.00
2022-11-29T21:48:13.045Z,98177.00
2022-11-29T21:52:19.097Z,98171.00
2022-11-29T21:56:17.059Z,98172.00
2022-11-29T22:00:19.438Z,98173.00
2022-11-29T22:04:20.731Z,98180.00
2022-11-29T22:08:21.923Z,98174.00
2022-11-29T22:12:38.519Z,98178.00
2022-11-29T22:16:27.085Z,98172.00
2022-11-29T22:20:28.388Z,98171.00
2022-11-29T22:24:32.063Z,98177.00
2022-11-29T22:28:34.435Z,98168.00
2022-11-29T22:32:35.886Z,98173.00
2022-11-29T22:36:38.138Z,98165.00
2022-11-29T22:40:40.019Z,98169.00
2022-11-29T22:44:41.253Z,98171.00
2022-11-29T22:48:44.408Z,98174.00
2022-11-29T22:52:45.720Z,98174.00
2022-11-29T22:56:47.056Z,98169.00
2022-11-29T23:00:48.201Z,98165.00
2022-11-29T23:04:49.483Z,98177.00
2022-11-29T23:08:53.641Z,98169.00
2022-11-29T23:12:54.902Z,98172.00
2022-11-29T23:16:56.167Z,98176.00
2022-11-29T23:21:02.159Z,98188.00
2022-11-29T23:25:03.907Z,98194.00
2022-11-29T23:29:11.072Z,98193.00
2022-11-29T23:33:12.591Z,98195.00
2022-11-29T23:37:13.871Z,98197.00
2022-11-29T23:41:14.974Z,98201.00
2022-11-29T23:45:15.951Z,98203.00
2022-11-29T23:49:16.818Z,98200.00
2022-11-29T23:53:19.055Z,98210.00
2022-11-29T23:57:20.146Z,98201.00
